sensor_id;sensor_type;location;lat;lon;timestamp;P1;durP1;ratioP1;P2;durP2;ratioP2
12908;SDS011;6522;49.622;6.126;2023-07-13T00:02:31;15.77;;;14.87;;
12908;SDS011;6522;49.622;6.126;2023-07-13T00:05:18;17.53;;;16.53;;
12908;SDS011;6522;49.622;6.126;2023-07-13T00:08:04;15.60;;;14.80;;
12908;SDS011;6522;49.622;6.126;2023-07-13T00:10:52;15.80;;;15.00;;
12908;SDS011;6522;49.622;6.126;2023-07-13T00:13:39;15.00;;;14.20;;
12908;SDS011;6522;49.622;6.126;2023-07-13T00:16:26;15.60;;;14.80;;
12908;SDS011;6522;49.622;6.126;2023-07-13T00:19:12;18.70;;;17.70;;
12908;SDS011;6522;49.622;6.126;2023-07-13T00:21:59;15.93;;;14.82;;
12908;SDS011;6522;49.622;6.126;2023-07-13T00:24:46;17.90;;;17.00;;
12908;SDS011;6522;49.622;6.126;2023-07-13T00:27:33;15.90;;;15.00;;
12908;SDS011;6522;49.622;6.126;2023-07-13T00:30:20;16.17;;;15.27;;
12908;SDS011;6522;49.622;6.126;2023-07-13T00:33:07;16.10;;;15.20;;
12908;SDS011;6522;49.622;6.126;2023-07-13T00:35:54;18.20;;;17.20;;
12908;SDS011;6522;49.622;6.126;2023-07-13T00:38:41;16.37;;;15.20;;
12908;SDS011;6522;49.622;6.126;2023-07-13T00:41:27;18.10;;;17.30;;
12908;SDS011;6522;49.622;6.126;2023-07-13T00:44:15;15.65;;;14.75;;
12908;SDS011;6522;49.622;6.126;2023-07-13T00:47:01;16.20;;;15.20;;
12908;SDS011;6522;49.622;6.126;2023-07-13T00:49:48;19.20;;;17.67;;
12908;SDS011;6522;49.622;6.126;2023-07-13T00:52:35;18.30;;;17.40;;
12908;SDS011;6522;49.622;6.126;2023-07-13T00:55:21;15.80;;;14.90;;
12908;SDS011;6522;49.622;6.126;2023-07-13T00:58:08;18.60;;;17.70;;
12908;SDS011;6522;49.622;6.126;2023-07-13T01:00:55;15.05;;;14.25;;
12908;SDS011;6522;49.622;6.126;2023-07-13T01:03:41;15.98;;;14.87;;
12908;SDS011;6522;49.622;6.126;2023-07-13T01:06:29;17.67;;;16.77;;
12908;SDS011;6522;49.622;6.126;2023-07-13T01:09:16;15.80;;;14.60;;
12908;SDS011;6522;49.622;6.126;2023-07-13T01:12:02;15.20;;;14.40;;
12908;SDS011;6522;49.622;6.126;2023-07-13T01:14:56;18.33;;;17.43;;
12908;SDS011;6522;49.622;6.126;2023-07-13T01:17:36;15.73;;;14.82;;
12908;SDS011;6522;49.622;6.126;2023-07-13T01:20:23;15.50;;;14.52;;
12908;SDS011;6522;49.622;6.126;2023-07-13T01:23:10;17.67;;;16.77;;
12908;SDS011;6522;49.622;6.126;2023-07-13T01:25:57;15.82;;;14.93;;
12908;SDS011;6522;49.622;6.126;2023-07-13T01:28:43;15.77;;;14.77;;
12908;SDS011;6522;49.622;6.126;2023-07-13T01:31:30;17.27;;;16.37;;
12908;SDS011;6522;49.622;6.126;2023-07-13T01:34:17;16.00;;;14.90;;
12908;SDS011;6522;49.622;6.126;2023-07-13T01:37:04;14.50;;;13.60;;
12908;SDS011;6522;49.622;6.126;2023-07-13T01:39:50;17.57;;;16.60;;
12908;SDS011;6522;49.622;6.126;2023-07-13T01:42:38;15.80;;;14.80;;
12908;SDS011;6522;49.622;6.126;2023-07-13T01:45:24;15.40;;;14.50;;
12908;SDS011;6522;49.622;6.126;2023-07-13T01:48:11;18.73;;;17.83;;
12908;SDS011;6522;49.622;6.126;2023-07-13T01:50:57;15.13;;;14.23;;
12908;SDS011;6522;49.622;6.126;2023-07-13T01:53:44;15.60;;;14.70;;
12908;SDS011;6522;49.622;6.126;2023-07-13T01:56:31;17.70;;;16.70;;
12908;SDS011;6522;49.622;6.126;2023-07-13T01:59:18;15.05;;;14.25;;
12908;SDS011;6522;49.622;6.126;2023-07-13T02:02:05;14.87;;;13.98;;
12908;SDS011;6522;49.622;6.126;2023-07-13T02:04:52;18.13;;;17.13;;
12908;SDS011;6522;49.622;6.126;2023-07-13T02:07:39;15.40;;;14.50;;
12908;SDS011;6522;49.622;6.126;2023-07-13T02:10:26;15.70;;;14.80;;
12908;SDS011;6522;49.622;6.126;2023-07-13T02:13:13;18.30;;;17.30;;
12908;SDS011;6522;49.622;6.126;2023-07-13T02:16:00;14.75;;;14.05;;
12908;SDS011;6522;49.622;6.126;2023-07-13T02:18:46;15.63;;;14.45;;
12908;SDS011;6522;49.622;6.126;2023-07-13T02:21:33;17.73;;;16.83;;
12908;SDS011;6522;49.622;6.126;2023-07-13T02:24:20;15.40;;;14.40;;
12908;SDS011;6522;49.622;6.126;2023-07-13T02:27:06;15.10;;;14.30;;
12908;SDS011;6522;49.622;6.126;2023-07-13T02:29:53;18.00;;;16.90;;
12908;SDS011;6522;49.622;6.126;2023-07-13T02:32:40;15.02;;;14.13;;
12908;SDS011;6522;49.622;6.126;2023-07-13T02:35:27;17.00;;;16.20;;
12908;SDS011;6522;49.622;6.126;2023-07-13T02:38:14;17.35;;;16.42;;
12908;SDS011;6522;49.622;6.126;2023-07-13T02:41:01;16.77;;;15.88;;
12908;SDS011;6522;49.622;6.126;2023-07-13T02:43:47;17.70;;;16.35;;
12908;SDS011;6522;49.622;6.126;2023-07-13T02:46:34;21.17;;;20.10;;
12908;SDS011;6522;49.622;6.126;2023-07-13T02:49:21;16.60;;;15.60;;
12908;SDS011;6522;49.622;6.126;2023-07-13T02:52:07;17.33;;;16.55;;
12908;SDS011;6522;49.622;6.126;2023-07-13T02:54:54;16.98;;;16.17;;
12908;SDS011;6522;49.622;6.126;2023-07-13T02:57:41;16.40;;;15.60;;
12908;SDS011;6522;49.622;6.126;2023-07-13T03:00:28;16.25;;;15.25;;
12908;SDS011;6522;49.622;6.126;2023-07-13T03:03:15;17.87;;;16.98;;
12908;SDS011;6522;49.622;6.126;2023-07-13T03:06:02;17.40;;;16.60;;
12908;SDS011;6522;49.622;6.126;2023-07-13T03:08:49;16.37;;;15.38;;
12908;SDS011;6522;49.622;6.126;2023-07-13T03:11:36;15.30;;;14.60;;
12908;SDS011;6522;49.622;6.126;2023-07-13T03:14:23;15.95;;;15.23;;
12908;SDS011;6522;49.622;6.126;2023-07-13T03:17:09;15.70;;;14.80;;
12908;SDS011;6522;49.622;6.126;2023-07-13T03:19:56;15.80;;;14.90;;
12908;SDS011;6522;49.622;6.126;2023-07-13T03:22:43;13.00;;;12.20;;
12908;SDS011;6522;49.622;6.126;2023-07-13T03:25:30;15.77;;;14.85;;
12908;SDS011;6522;49.622;6.126;2023-07-13T03:28:17;15.38;;;14.57;;
12908;SDS011;6522;49.622;6.126;2023-07-13T03:31:07;14.85;;;13.90;;
12908;SDS011;6522;49.622;6.126;2023-07-13T03:33:51;14.40;;;13.60;;
12908;SDS011;6522;49.622;6.126;2023-07-13T03:36:38;15.70;;;15.00;;
12908;SDS011;6522;49.622;6.126;2023-07-13T03:39:25;14.45;;;13.75;;
12908;SDS011;6522;49.622;6.126;2023-07-13T03:42:12;14.57;;;13.80;;
12908;SDS011;6522;49.622;6.126;2023-07-13T03:44:59;13.80;;;13.00;;
12908;SDS011;6522;49.622;6.126;2023-07-13T03:47:45;15.60;;;14.70;;
12908;SDS011;6522;49.622;6.126;2023-07-13T03:50:32;15.18;;;14.48;;
12908;SDS011;6522;49.622;6.126;2023-07-13T03:53:19;14.48;;;13.68;;
12908;SDS011;6522;49.622;6.126;2023-07-13T03:56:05;15.10;;;14.20;;
12908;SDS011;6522;49.622;6.126;2023-07-13T03:58:52;14.75;;;13.85;;
12908;SDS011;6522;49.622;6.126;2023-07-13T04:01:39;14.85;;;13.88;;
12908;SDS011;6522;49.622;6.126;2023-07-13T04:04:26;14.00;;;13.20;;
12908;SDS011;6522;49.622;6.126;2023-07-13T04:07:12;17.87;;;16.75;;
12908;SDS011;6522;49.622;6.126;2023-07-13T04:09:59;15.95;;;14.90;;
12908;SDS011;6522;49.622;6.126;2023-07-13T04:12:46;16.85;;;15.80;;
12908;SDS011;6522;49.622;6.126;2023-07-13T04:15:33;16.70;;;15.90;;
12908;SDS011;6522;49.622;6.126;2023-07-13T04:18:20;16.65;;;15.75;;
12908;SDS011;6522;49.622;6.126;2023-07-13T04:21:07;17.15;;;16.25;;
12908;SDS011;6522;49.622;6.126;2023-07-13T04:23:53;16.70;;;15.77;;
12908;SDS011;6522;49.622;6.126;2023-07-13T04:26:40;15.20;;;14.30;;
12908;SDS011;6522;49.622;6.126;2023-07-13T04:29:27;14.70;;;13.60;;
12908;SDS011;6522;49.622;6.126;2023-07-13T04:32:14;17.20;;;16.23;;
12908;SDS011;6522;49.622;6.126;2023-07-13T04:35:01;15.32;;;14.13;;
12908;SDS011;6522;49.622;6.126;2023-07-13T04:37:48;16.10;;;15.20;;
12908;SDS011;6522;49.622;6.126;2023-07-13T04:40:34;16.73;;;15.63;;
12908;SDS011;6522;49.622;6.126;2023-07-13T04:43:21;14.50;;;13.70;;
12908;SDS011;6522;49.622;6.126;2023-07-13T04:46:09;16.60;;;15.80;;
12908;SDS011;6522;49.622;6.126;2023-07-13T04:48:55;15.65;;;14.75;;
12908;SDS011;6522;49.622;6.126;2023-07-13T04:51:41;16.80;;;16.00;;
12908;SDS011;6522;49.622;6.126;2023-07-13T04:54:28;17.33;;;16.33;;
12908;SDS011;6522;49.622;6.126;2023-07-13T04:57:15;18.02;;;17.12;;
12908;SDS011;6522;49.622;6.126;2023-07-13T05:00:02;16.08;;;14.90;;
12908;SDS011;6522;49.622;6.126;2023-07-13T05:02:48;16.75;;;15.77;;
12908;SDS011;6522;49.622;6.126;2023-07-13T05:05:35;15.95;;;15.23;;
12908;SDS011;6522;49.622;6.126;2023-07-13T05:08:22;16.20;;;14.87;;
12908;SDS011;6522;49.622;6.126;2023-07-13T05:11:08;14.65;;;13.95;;
12908;SDS011;6522;49.622;6.126;2023-07-13T05:13:55;16.12;;;15.32;;
12908;SDS011;6522;49.622;6.126;2023-07-13T05:16:42;15.82;;;14.87;;
12908;SDS011;6522;49.622;6.126;2023-07-13T05:19:29;15.20;;;14.30;;
12908;SDS011;6522;49.622;6.126;2023-07-13T05:22:15;15.00;;;14.30;;
12908;SDS011;6522;49.622;6.126;2023-07-13T05:25:04;14.40;;;13.70;;
12908;SDS011;6522;49.622;6.126;2023-07-13T05:27:49;15.18;;;14.35;;
12908;SDS011;6522;49.622;6.126;2023-07-13T05:30:35;15.75;;;14.85;;
12908;SDS011;6522;49.622;6.126;2023-07-13T05:33:23;15.32;;;14.48;;
12908;SDS011;6522;49.622;6.126;2023-07-13T05:36:09;14.98;;;13.93;;
12908;SDS011;6522;49.622;6.126;2023-07-13T05:38:56;14.95;;;14.15;;
12908;SDS011;6522;49.622;6.126;2023-07-13T05:41:43;14.60;;;13.45;;
12908;SDS011;6522;49.622;6.126;2023-07-13T05:44:29;13.93;;;13.10;;
12908;SDS011;6522;49.622;6.126;2023-07-13T05:47:16;14.57;;;13.77;;
12908;SDS011;6522;49.622;6.126;2023-07-13T05:50:04;16.20;;;15.13;;
12908;SDS011;6522;49.622;6.126;2023-07-13T05:52:51;14.80;;;13.88;;
12908;SDS011;6522;49.622;6.126;2023-07-13T05:55:45;13.60;;;12.50;;
12908;SDS011;6522;49.622;6.126;2023-07-13T05:58:31;16.00;;;15.20;;
12908;SDS011;6522;49.622;6.126;2023-07-13T06:01:18;13.95;;;12.85;;
12908;SDS011;6522;49.622;6.126;2023-07-13T06:04:05;14.65;;;13.85;;
12908;SDS011;6522;49.622;6.126;2023-07-13T06:06:51;14.55;;;13.75;;
12908;SDS011;6522;49.622;6.126;2023-07-13T06:09:38;12.98;;;11.98;;
12908;SDS011;6522;49.622;6.126;2023-07-13T06:12:25;15.35;;;14.55;;
12908;SDS011;6522;49.622;6.126;2023-07-13T06:15:12;13.90;;;13.10;;
12908;SDS011;6522;49.622;6.126;2023-07-13T06:17:59;14.10;;;13.00;;
12908;SDS011;6522;49.622;6.126;2023-07-13T06:20:45;17.67;;;16.05;;
12908;SDS011;6522;49.622;6.126;2023-07-13T06:23:32;18.27;;;17.23;;
12908;SDS011;6522;49.622;6.126;2023-07-13T06:26:19;17.23;;;16.05;;
12908;SDS011;6522;49.622;6.126;2023-07-13T06:29:05;17.70;;;16.67;;
12908;SDS011;6522;49.622;6.126;2023-07-13T06:31:52;32.53;;;30.93;;
12908;SDS011;6522;49.622;6.126;2023-07-13T06:34:39;30.70;;;29.50;;
12908;SDS011;6522;49.622;6.126;2023-07-13T06:37:25;15.50;;;14.40;;
12908;SDS011;6522;49.622;6.126;2023-07-13T06:40:12;17.50;;;16.43;;
12908;SDS011;6522;49.622;6.126;2023-07-13T06:42:59;15.90;;;14.90;;
12908;SDS011;6522;49.622;6.126;2023-07-13T06:45:46;15.40;;;14.50;;
12908;SDS011;6522;49.622;6.126;2023-07-13T06:48:33;21.93;;;20.70;;
12908;SDS011;6522;49.622;6.126;2023-07-13T06:51:20;30.10;;;28.77;;
12908;SDS011;6522;49.622;6.126;2023-07-13T06:54:06;26.80;;;25.60;;
12908;SDS011;6522;49.622;6.126;2023-07-13T06:56:53;32.40;;;31.20;;
12908;SDS011;6522;49.622;6.126;2023-07-13T06:59:40;26.52;;;25.40;;
12908;SDS011;6522;49.622;6.126;2023-07-13T07:02:27;29.67;;;28.48;;
12908;SDS011;6522;49.622;6.126;2023-07-13T07:05:14;19.43;;;18.53;;
12908;SDS011;6522;49.622;6.126;2023-07-13T07:08:01;15.90;;;15.10;;
12908;SDS011;6522;49.622;6.126;2023-07-13T07:10:47;16.30;;;15.30;;
12908;SDS011;6522;49.622;6.126;2023-07-13T07:13:34;17.77;;;16.97;;
12908;SDS011;6522;49.622;6.126;2023-07-13T07:16:21;16.23;;;15.20;;
12908;SDS011;6522;49.622;6.126;2023-07-13T07:19:07;18.30;;;17.43;;
12908;SDS011;6522;49.622;6.126;2023-07-13T07:21:54;15.63;;;14.80;;
12908;SDS011;6522;49.622;6.126;2023-07-13T07:24:41;16.48;;;15.68;;
12908;SDS011;6522;49.622;6.126;2023-07-13T07:27:27;18.33;;;17.43;;
12908;SDS011;6522;49.622;6.126;2023-07-13T07:30:14;15.67;;;14.87;;
12908;SDS011;6522;49.622;6.126;2023-07-13T07:33:01;16.20;;;15.30;;
12908;SDS011;6522;49.622;6.126;2023-07-13T07:35:48;18.30;;;17.20;;
12908;SDS011;6522;49.622;6.126;2023-07-13T07:38:34;16.00;;;15.20;;
12908;SDS011;6522;49.622;6.126;2023-07-13T07:41:21;16.27;;;15.37;;
12908;SDS011;6522;49.622;6.126;2023-07-13T07:44:08;19.13;;;18.20;;
12908;SDS011;6522;49.622;6.126;2023-07-13T07:46:54;17.00;;;16.00;;
12908;SDS011;6522;49.622;6.126;2023-07-13T07:49:41;16.60;;;15.70;;
12908;SDS011;6522;49.622;6.126;2023-07-13T07:52:28;18.70;;;17.80;;
12908;SDS011;6522;49.622;6.126;2023-07-13T07:55:15;17.23;;;16.42;;
12908;SDS011;6522;49.622;6.126;2023-07-13T07:58:02;17.20;;;16.30;;
12908;SDS011;6522;49.622;6.126;2023-07-13T08:00:48;19.20;;;18.30;;
12908;SDS011;6522;49.622;6.126;2023-07-13T08:03:35;18.35;;;17.45;;
12908;SDS011;6522;49.622;6.126;2023-07-13T08:06:22;16.62;;;15.73;;
12908;SDS011;6522;49.622;6.126;2023-07-13T08:09:09;19.97;;;18.77;;
12908;SDS011;6522;49.622;6.126;2023-07-13T08:11:56;16.90;;;15.90;;
12908;SDS011;6522;49.622;6.126;2023-07-13T08:14:43;16.45;;;15.50;;
12908;SDS011;6522;49.622;6.126;2023-07-13T08:17:30;18.80;;;17.90;;
12908;SDS011;6522;49.622;6.126;2023-07-13T08:20:17;16.50;;;15.70;;
12908;SDS011;6522;49.622;6.126;2023-07-13T08:23:04;16.50;;;15.60;;
12908;SDS011;6522;49.622;6.126;2023-07-13T08:25:51;19.80;;;18.37;;
12908;SDS011;6522;49.622;6.126;2023-07-13T08:28:37;16.98;;;16.10;;
12908;SDS011;6522;49.622;6.126;2023-07-13T08:31:24;18.62;;;17.62;;
12908;SDS011;6522;49.622;6.126;2023-07-13T08:34:10;19.30;;;18.23;;
12908;SDS011;6522;49.622;6.126;2023-07-13T08:36:58;16.60;;;15.60;;
12908;SDS011;6522;49.622;6.126;2023-07-13T08:39:44;18.25;;;17.25;;
12908;SDS011;6522;49.622;6.126;2023-07-13T08:42:33;17.70;;;16.58;;
12908;SDS011;6522;49.622;6.126;2023-07-13T08:45:20;19.60;;;18.60;;
12908;SDS011;6522;49.622;6.126;2023-07-13T08:48:12;17.00;;;16.10;;
12908;SDS011;6522;49.622;6.126;2023-07-13T08:51:00;17.00;;;16.10;;
12908;SDS011;6522;49.622;6.126;2023-07-13T08:53:51;20.10;;;19.00;;
12908;SDS011;6522;49.622;6.126;2023-07-13T08:56:37;17.20;;;16.30;;
12908;SDS011;6522;49.622;6.126;2023-07-13T08:59:26;17.45;;;16.55;;
12908;SDS011;6522;49.622;6.126;2023-07-13T09:02:33;19.07;;;18.07;;
12908;SDS011;6522;49.622;6.126;2023-07-13T09:17:13;21.07;;;20.07;;
12908;SDS011;6522;49.622;6.126;2023-07-13T09:20:01;20.33;;;19.20;;
12908;SDS011;6522;49.622;6.126;2023-07-13T09:22:45;19.70;;;18.70;;
12908;SDS011;6522;49.622;6.126;2023-07-13T09:25:33;19.90;;;19.00;;
12908;SDS011;6522;49.622;6.126;2023-07-13T09:28:20;21.20;;;20.20;;
12908;SDS011;6522;49.622;6.126;2023-07-13T09:34:07;20.00;;;19.00;;
12908;SDS011;6522;49.622;6.126;2023-07-13T09:36:51;18.60;;;17.60;;
12908;SDS011;6522;49.622;6.126;2023-07-13T09:39:41;20.47;;;19.47;;
12908;SDS011;6522;49.622;6.126;2023-07-13T09:42:27;20.50;;;19.20;;
12908;SDS011;6522;49.622;6.126;2023-07-13T09:45:17;20.23;;;19.23;;
12908;SDS011;6522;49.622;6.126;2023-07-13T09:48:06;20.53;;;19.43;;
12908;SDS011;6522;49.622;6.126;2023-07-13T09:50:54;20.13;;;19.13;;
12908;SDS011;6522;49.622;6.126;2023-07-13T09:53:38;20.50;;;19.60;;
12908;SDS011;6522;49.622;6.126;2023-07-13T09:56:28;20.20;;;19.20;;
12908;SDS011;6522;49.622;6.126;2023-07-13T09:59:19;17.98;;;16.90;;
12908;SDS011;6522;49.622;6.126;2023-07-13T10:05:11;20.47;;;19.30;;
12908;SDS011;6522;49.622;6.126;2023-07-13T10:07:57;19.90;;;19.00;;
12908;SDS011;6522;49.622;6.126;2023-07-13T10:10:44;19.70;;;18.50;;
12908;SDS011;6522;49.622;6.126;2023-07-13T10:13:40;20.10;;;19.00;;
12908;SDS011;6522;49.622;6.126;2023-07-13T10:16:20;20.60;;;19.50;;
12908;SDS011;6522;49.622;6.126;2023-07-13T10:19:12;19.60;;;18.50;;
12908;SDS011;6522;49.622;6.126;2023-07-13T10:22:02;19.60;;;18.43;;
12908;SDS011;6522;49.622;6.126;2023-07-13T10:24:44;17.20;;;16.20;;
12908;SDS011;6522;49.622;6.126;2023-07-13T10:27:34;20.00;;;18.67;;
12908;SDS011;6522;49.622;6.126;2023-07-13T10:30:24;19.20;;;18.30;;
12908;SDS011;6522;49.622;6.126;2023-07-13T10:33:11;20.33;;;19.23;;
12908;SDS011;6522;49.622;6.126;2023-07-13T10:36:04;19.60;;;18.50;;
12908;SDS011;6522;49.622;6.126;2023-07-13T10:38:47;19.03;;;18.03;;
12908;SDS011;6522;49.622;6.126;2023-07-13T10:41:35;20.07;;;18.90;;
12908;SDS011;6522;49.622;6.126;2023-07-13T10:44:21;20.67;;;19.37;;
12908;SDS011;6522;49.622;6.126;2023-07-13T10:47:08;19.80;;;18.80;;
12908;SDS011;6522;49.622;6.126;2023-07-13T10:49:54;19.80;;;18.80;;
12908;SDS011;6522;49.622;6.126;2023-07-13T10:52:47;19.57;;;18.60;;
12908;SDS011;6522;49.622;6.126;2023-07-13T10:55:36;21.30;;;20.20;;
12908;SDS011;6522;49.622;6.126;2023-07-13T10:58:23;21.10;;;20.00;;
12908;SDS011;6522;49.622;6.126;2023-07-13T11:01:10;19.83;;;18.83;;
12908;SDS011;6522;49.622;6.126;2023-07-13T11:03:59;19.83;;;18.93;;
12908;SDS011;6522;49.622;6.126;2023-07-13T11:06:47;19.90;;;18.90;;
12908;SDS011;6522;49.622;6.126;2023-07-13T11:15:09;20.10;;;19.03;;
12908;SDS011;6522;49.622;6.126;2023-07-13T11:17:54;19.87;;;18.97;;
12908;SDS011;6522;49.622;6.126;2023-07-13T11:20:40;19.90;;;18.80;;
12908;SDS011;6522;49.622;6.126;2023-07-13T11:23:27;20.70;;;19.70;;
12908;SDS011;6522;49.622;6.126;2023-07-13T11:32:30;20.60;;;19.60;;
12908;SDS011;6522;49.622;6.126;2023-07-13T11:35:14;20.07;;;19.10;;
12908;SDS011;6522;49.622;6.126;2023-07-13T11:38:00;20.37;;;19.47;;
12908;SDS011;6522;49.622;6.126;2023-07-13T11:40:47;20.00;;;19.00;;
12908;SDS011;6522;49.622;6.126;2023-07-13T11:43:34;19.70;;;18.80;;
12908;SDS011;6522;49.622;6.126;2023-07-13T11:46:24;20.60;;;19.60;;
12908;SDS011;6522;49.622;6.126;2023-07-13T11:49:12;19.60;;;18.60;;
12908;SDS011;6522;49.622;6.126;2023-07-13T11:51:57;21.50;;;19.93;;
12908;SDS011;6522;49.622;6.126;2023-07-13T11:54:48;20.40;;;19.20;;
12908;SDS011;6522;49.622;6.126;2023-07-13T11:57:36;20.37;;;19.47;;
12908;SDS011;6522;49.622;6.126;2023-07-13T12:00:25;19.90;;;18.90;;
12908;SDS011;6522;49.622;6.126;2023-07-13T12:03:10;20.40;;;19.33;;
12908;SDS011;6522;49.622;6.126;2023-07-13T12:05:57;20.63;;;19.73;;
12908;SDS011;6522;49.622;6.126;2023-07-13T12:08:43;19.90;;;19.00;;
12908;SDS011;6522;49.622;6.126;2023-07-13T12:11:30;20.13;;;19.13;;
12908;SDS011;6522;49.622;6.126;2023-07-13T12:14:17;17.90;;;16.80;;
12908;SDS011;6522;49.622;6.126;2023-07-13T12:17:08;19.60;;;18.70;;
12908;SDS011;6522;49.622;6.126;2023-07-13T12:19:50;20.63;;;19.53;;
12908;SDS011;6522;49.622;6.126;2023-07-13T12:22:37;20.80;;;19.80;;
12908;SDS011;6522;49.622;6.126;2023-07-13T12:25:23;19.80;;;18.80;;
12908;SDS011;6522;49.622;6.126;2023-07-13T12:28:20;19.73;;;18.83;;
12908;SDS011;6522;49.622;6.126;2023-07-13T12:31:07;19.90;;;18.93;;
12908;SDS011;6522;49.622;6.126;2023-07-13T12:33:57;20.90;;;19.83;;
12908;SDS011;6522;49.622;6.126;2023-07-13T12:39:37;20.93;;;19.80;;
12908;SDS011;6522;49.622;6.126;2023-07-13T12:42:26;20.50;;;19.13;;
12908;SDS011;6522;49.622;6.126;2023-07-13T12:45:19;20.37;;;19.17;;
12908;SDS011;6522;49.622;6.126;2023-07-13T12:48:10;20.17;;;18.80;;
12908;SDS011;6522;49.622;6.126;2023-07-13T12:50:53;21.17;;;20.17;;
12908;SDS011;6522;49.622;6.126;2023-07-13T12:53:40;19.97;;;18.90;;
12908;SDS011;6522;49.622;6.126;2023-07-13T12:56:26;19.50;;;18.60;;
12908;SDS011;6522;49.622;6.126;2023-07-13T12:59:16;19.73;;;18.83;;
12908;SDS011;6522;49.622;6.126;2023-07-13T13:01:59;20.67;;;19.67;;
12908;SDS011;6522;49.622;6.126;2023-07-13T13:04:46;18.02;;;17.12;;
12908;SDS011;6522;49.622;6.126;2023-07-13T13:07:33;17.48;;;16.67;;
12908;SDS011;6522;49.622;6.126;2023-07-13T13:10:19;20.23;;;19.13;;
12908;SDS011;6522;49.622;6.126;2023-07-13T13:13:06;18.93;;;18.10;;
12908;SDS011;6522;49.622;6.126;2023-07-13T13:15:53;19.60;;;18.50;;
12908;SDS011;6522;49.622;6.126;2023-07-13T13:18:40;19.87;;;18.97;;
12908;SDS011;6522;49.622;6.126;2023-07-13T13:21:27;20.50;;;19.30;;
12908;SDS011;6522;49.622;6.126;2023-07-13T13:24:15;18.10;;;17.00;;
12908;SDS011;6522;49.622;6.126;2023-07-13T13:27:01;19.97;;;19.07;;
12908;SDS011;6522;49.622;6.126;2023-07-13T13:29:48;19.15;;;17.87;;
12908;SDS011;6522;49.622;6.126;2023-07-13T13:32:34;20.17;;;19.17;;
12908;SDS011;6522;49.622;6.126;2023-07-13T13:35:21;19.80;;;18.90;;
12908;SDS011;6522;49.622;6.126;2023-07-13T13:38:15;20.70;;;19.70;;
12908;SDS011;6522;49.622;6.126;2023-07-13T13:40:58;21.27;;;20.17;;
12908;SDS011;6522;49.622;6.126;2023-07-13T13:43:46;20.67;;;19.57;;
12908;SDS011;6522;49.622;6.126;2023-07-13T13:46:32;20.30;;;19.20;;
12908;SDS011;6522;49.622;6.126;2023-07-13T13:49:24;20.77;;;19.53;;
12908;SDS011;6522;49.622;6.126;2023-07-13T13:52:08;19.43;;;18.53;;
12908;SDS011;6522;49.622;6.126;2023-07-13T13:54:52;20.40;;;19.40;;
12908;SDS011;6522;49.622;6.126;2023-07-13T13:57:42;21.00;;;20.00;;
12908;SDS011;6522;49.622;6.126;2023-07-13T14:00:29;20.83;;;19.50;;
12908;SDS011;6522;49.622;6.126;2023-07-13T14:03:19;20.50;;;19.30;;
12908;SDS011;6522;49.622;6.126;2023-07-13T14:06:07;20.40;;;19.10;;
12908;SDS011;6522;49.622;6.126;2023-07-13T14:08:52;20.20;;;19.00;;
12908;SDS011;6522;49.622;6.126;2023-07-13T14:11:39;19.90;;;18.90;;
12908;SDS011;6522;49.622;6.126;2023-07-13T14:14:26;18.10;;;17.00;;
12908;SDS011;6522;49.622;6.126;2023-07-13T14:17:18;19.93;;;18.47;;
12908;SDS011;6522;49.622;6.126;2023-07-13T14:20:02;19.40;;;18.50;;
12908;SDS011;6522;49.622;6.126;2023-07-13T14:22:49;20.87;;;19.57;;
12908;SDS011;6522;49.622;6.126;2023-07-13T14:25:36;19.80;;;18.70;;
12908;SDS011;6522;49.622;6.126;2023-07-13T14:28:24;18.50;;;17.70;;
12908;SDS011;6522;49.622;6.126;2023-07-13T14:31:10;19.73;;;18.63;;
12908;SDS011;6522;49.622;6.126;2023-07-13T14:33:56;17.50;;;16.50;;
12908;SDS011;6522;49.622;6.126;2023-07-13T14:36:43;20.40;;;19.50;;
12908;SDS011;6522;49.622;6.126;2023-07-13T14:39:29;17.20;;;16.10;;
12908;SDS011;6522;49.622;6.126;2023-07-13T14:42:16;17.10;;;16.20;;
12908;SDS011;6522;49.622;6.126;2023-07-13T14:45:03;19.80;;;18.50;;
12908;SDS011;6522;49.622;6.126;2023-07-13T14:47:50;19.60;;;18.70;;
12908;SDS011;6522;49.622;6.126;2023-07-13T14:50:37;19.73;;;18.43;;
12908;SDS011;6522;49.622;6.126;2023-07-13T14:53:27;19.23;;;18.33;;
12908;SDS011;6522;49.622;6.126;2023-07-13T14:56:11;19.80;;;18.80;;
12908;SDS011;6522;49.622;6.126;2023-07-13T14:58:58;19.97;;;19.07;;
12908;SDS011;6522;49.622;6.126;2023-07-13T15:01:45;19.70;;;18.70;;
12908;SDS011;6522;49.622;6.126;2023-07-13T15:04:31;18.70;;;17.80;;
12908;SDS011;6522;49.622;6.126;2023-07-13T15:07:18;19.23;;;18.07;;
12908;SDS011;6522;49.622;6.126;2023-07-13T15:10:15;19.00;;;18.10;;
12908;SDS011;6522;49.622;6.126;2023-07-13T15:12:52;19.90;;;18.80;;
12908;SDS011;6522;49.622;6.126;2023-07-13T15:15:39;19.83;;;18.93;;
12908;SDS011;6522;49.622;6.126;2023-07-13T15:18:26;20.97;;;19.93;;
12908;SDS011;6522;49.622;6.126;2023-07-13T15:21:19;16.90;;;15.90;;
12908;SDS011;6522;49.622;6.126;2023-07-13T15:24:02;19.47;;;18.47;;
12908;SDS011;6522;49.622;6.126;2023-07-13T15:26:49;19.73;;;18.73;;
12908;SDS011;6522;49.622;6.126;2023-07-13T15:29:36;20.20;;;19.20;;
12908;SDS011;6522;49.622;6.126;2023-07-13T15:32:23;19.90;;;18.90;;
12908;SDS011;6522;49.622;6.126;2023-07-13T15:35:16;19.60;;;18.40;;
12908;SDS011;6522;49.622;6.126;2023-07-13T15:38:09;19.10;;;18.20;;
12908;SDS011;6522;49.622;6.126;2023-07-13T15:40:49;16.92;;;16.10;;
12908;SDS011;6522;49.622;6.126;2023-07-13T15:43:35;20.23;;;19.23;;
12908;SDS011;6522;49.622;6.126;2023-07-13T15:46:22;19.97;;;19.07;;
12908;SDS011;6522;49.622;6.126;2023-07-13T15:49:09;19.57;;;18.27;;
12908;SDS011;6522;49.622;6.126;2023-07-13T15:51:56;19.93;;;19.03;;
12908;SDS011;6522;49.622;6.126;2023-07-13T15:54:42;16.80;;;15.80;;
12908;SDS011;6522;49.622;6.126;2023-07-13T15:57:29;18.37;;;17.27;;
12908;SDS011;6522;49.622;6.126;2023-07-13T16:03:06;19.57;;;18.67;;
12908;SDS011;6522;49.622;6.126;2023-07-13T16:05:53;19.70;;;18.50;;
12908;SDS011;6522;49.622;6.126;2023-07-13T16:08:40;19.27;;;18.07;;
12908;SDS011;6522;49.622;6.126;2023-07-13T16:11:28;19.97;;;19.07;;
12908;SDS011;6522;49.622;6.126;2023-07-13T16:14:14;19.50;;;18.60;;
12908;SDS011;6522;49.622;6.126;2023-07-13T16:17:00;17.05;;;16.10;;
12908;SDS011;6522;49.622;6.126;2023-07-13T16:19:47;18.80;;;17.80;;
12908;SDS011;6522;49.622;6.126;2023-07-13T16:22:34;18.87;;;17.97;;
12908;SDS011;6522;49.622;6.126;2023-07-13T16:25:24;18.20;;;17.40;;
12908;SDS011;6522;49.622;6.126;2023-07-13T16:28:11;19.27;;;18.37;;
12908;SDS011;6522;49.622;6.126;2023-07-13T16:30:57;16.80;;;16.00;;
12908;SDS011;6522;49.622;6.126;2023-07-13T16:33:44;18.47;;;17.50;;
12908;SDS011;6522;49.622;6.126;2023-07-13T16:36:31;18.77;;;17.87;;
12908;SDS011;6522;49.622;6.126;2023-07-13T16:39:18;19.17;;;17.87;;
12908;SDS011;6522;49.622;6.126;2023-07-13T16:42:04;16.40;;;15.60;;
12908;SDS011;6522;49.622;6.126;2023-07-13T16:44:51;18.87;;;17.97;;
12908;SDS011;6522;49.622;6.126;2023-07-13T16:47:38;19.20;;;18.20;;
12908;SDS011;6522;49.622;6.126;2023-07-13T16:50:26;19.77;;;18.80;;
12908;SDS011;6522;49.622;6.126;2023-07-13T16:53:15;19.83;;;18.80;;
12908;SDS011;6522;49.622;6.126;2023-07-13T16:56:02;20.37;;;18.87;;
12908;SDS011;6522;49.622;6.126;2023-07-13T16:58:49;20.17;;;19.07;;
12908;SDS011;6522;49.622;6.126;2023-07-13T17:01:36;20.20;;;19.20;;
12908;SDS011;6522;49.622;6.126;2023-07-13T17:04:22;20.17;;;18.80;;
12908;SDS011;6522;49.622;6.126;2023-07-13T17:07:09;19.60;;;18.60;;